sensor_id;sensor_type;location;lat;lon;timestamp;P1;durP1;ratioP1;P2;durP2;ratioP2
18214;SDS011;9233;51.312;6.512;2022-08-19T09:26:51;20.07;;;12.53;;
18214;SDS011;9233;51.312;6.512;2022-08-19T09:29:37;15.67;;;10.23;;
18214;SDS011;9233;51.312;6.512;2022-08-19T09:32:24;16.00;;;10.33;;
18214;SDS011;9233;51.312;6.512;2022-08-19T09:35:12;15.83;;;9.33;;
18214;SDS011;9233;51.312;6.512;2022-08-19T09:37:59;12.07;;;8.03;;
18214;SDS011;9233;51.312;6.512;2022-08-19T09:40:46;12.33;;;8.60;;
18214;SDS011;9233;51.312;6.512;2022-08-19T09:43:34;11.60;;;8.20;;
18214;SDS011;9233;51.312;6.512;2022-08-19T09:46:21;14.10;;;8.97;;
18214;SDS011;9233;51.312;6.512;2022-08-19T09:49:09;16.60;;;9.73;;
18214;SDS011;9233;51.312;6.512;2022-08-19T09:51:55;14.60;;;9.27;;
18214;SDS011;9233;51.312;6.512;2022-08-19T09:54:42;15.23;;;8.57;;
18214;SDS011;9233;51.312;6.512;2022-08-19T09:57:29;13.20;;;9.10;;
18214;SDS011;9233;51.312;6.512;2022-08-19T10:00:17;11.20;;;7.87;;
18214;SDS011;9233;51.312;6.512;2022-08-19T10:03:04;12.70;;;8.30;;
18214;SDS011;9233;51.312;6.512;2022-08-19T10:05:50;12.27;;;8.17;;
18214;SDS011;9233;51.312;6.512;2022-08-19T10:08:36;12.03;;;7.67;;
18214;SDS011;9233;51.312;6.512;2022-08-19T10:11:25;13.93;;;7.97;;
18214;SDS011;9233;51.312;6.512;2022-08-19T10:14:12;14.73;;;9.10;;
18214;SDS011;9233;51.312;6.512;2022-08-19T10:17:01;17.67;;;8.20;;
18214;SDS011;9233;51.312;6.512;2022-08-19T10:19:47;11.27;;;7.47;;
18214;SDS011;9233;51.312;6.512;2022-08-19T10:22:34;10.70;;;6.90;;
18214;SDS011;9233;51.312;6.512;2022-08-19T10:25:22;12.80;;;8.30;;
18214;SDS011;9233;51.312;6.512;2022-08-19T10:28:09;13.70;;;8.47;;
18214;SDS011;9233;51.312;6.512;2022-08-19T10:30:57;13.60;;;8.10;;
18214;SDS011;9233;51.312;6.512;2022-08-19T10:33:45;11.13;;;8.13;;
18214;SDS011;9233;51.312;6.512;2022-08-19T10:36:34;13.40;;;7.70;;
18214;SDS011;9233;51.312;6.512;2022-08-19T10:39:23;14.53;;;8.60;;
18214;SDS011;9233;51.312;6.512;2022-08-19T10:42:10;12.30;;;7.60;;
18214;SDS011;9233;51.312;6.512;2022-08-19T10:44:58;17.27;;;8.57;;
18214;SDS011;9233;51.312;6.512;2022-08-19T10:47:45;10.23;;;7.43;;
18214;SDS011;9233;51.312;6.512;2022-08-19T10:50:33;10.10;;;7.77;;
18214;SDS011;9233;51.312;6.512;2022-08-19T10:53:42;11.20;;;7.90;;
18214;SDS011;9233;51.312;6.512;2022-08-19T10:56:29;11.67;;;7.43;;
18214;SDS011;9233;51.312;6.512;2022-08-19T10:59:33;9.27;;;7.10;;
18214;SDS011;9233;51.312;6.512;2022-08-19T11:02:20;9.63;;;6.67;;
18214;SDS011;9233;51.312;6.512;2022-08-19T11:05:07;10.60;;;7.23;;
18214;SDS011;9233;51.312;6.512;2022-08-19T11:07:57;11.70;;;6.90;;
18214;SDS011;9233;51.312;6.512;2022-08-19T11:10:43;10.40;;;6.47;;
18214;SDS011;9233;51.312;6.512;2022-08-19T11:13:30;9.10;;;5.80;;
18214;SDS011;9233;51.312;6.512;2022-08-19T11:16:23;9.80;;;6.13;;
18214;SDS011;9233;51.312;6.512;2022-08-19T11:19:11;9.43;;;6.20;;
18214;SDS011;9233;51.312;6.512;2022-08-19T11:22:01;6.87;;;5.53;;
18214;SDS011;9233;51.312;6.512;2022-08-19T11:24:49;10.23;;;6.23;;
18214;SDS011;9233;51.312;6.512;2022-08-19T11:27:37;11.00;;;6.23;;
18214;SDS011;9233;51.312;6.512;2022-08-19T11:30:26;8.80;;;5.60;;
18214;SDS011;9233;51.312;6.512;2022-08-19T11:33:12;6.27;;;5.37;;
18214;SDS011;9233;51.312;6.512;2022-08-19T11:35:59;7.43;;;5.77;;
18214;SDS011;9233;51.312;6.512;2022-08-19T11:38:46;7.73;;;5.37;;
18214;SDS011;9233;51.312;6.512;2022-08-19T11:41:35;9.83;;;5.40;;
18214;SDS011;9233;51.312;6.512;2022-08-19T11:44:22;8.87;;;4.80;;
18214;SDS011;9233;51.312;6.512;2022-08-19T11:47:08;9.43;;;5.43;;
18214;SDS011;9233;51.312;6.512;2022-08-19T11:49:55;8.33;;;5.50;;
18214;SDS011;9233;51.312;6.512;2022-08-19T11:52:42;9.23;;;5.27;;
18214;SDS011;9233;51.312;6.512;2022-08-19T11:55:30;6.10;;;5.07;;
18214;SDS011;9233;51.312;6.512;2022-08-19T11:58:18;10.83;;;5.10;;
18214;SDS011;9233;51.312;6.512;2022-08-19T12:01:05;5.77;;;4.50;;
18214;SDS011;9233;51.312;6.512;2022-08-19T12:03:53;7.77;;;4.27;;
18214;SDS011;9233;51.312;6.512;2022-08-19T12:06:40;9.77;;;4.07;;
18214;SDS011;9233;51.312;6.512;2022-08-19T12:09:27;5.23;;;3.80;;
18214;SDS011;9233;51.312;6.512;2022-08-19T12:12:13;4.90;;;3.57;;
18214;SDS011;9233;51.312;6.512;2022-08-19T12:15:02;4.37;;;3.97;;
18214;SDS011;9233;51.312;6.512;2022-08-19T12:17:49;5.40;;;4.27;;
18214;SDS011;9233;51.312;6.512;2022-08-19T12:20:38;4.30;;;3.70;;
18214;SDS011;9233;51.312;6.512;2022-08-19T12:23:25;5.90;;;3.33;;
18214;SDS011;9233;51.312;6.512;2022-08-19T12:26:12;5.70;;;3.50;;
18214;SDS011;9233;51.312;6.512;2022-08-19T12:28:59;4.40;;;3.30;;
18214;SDS011;9233;51.312;6.512;2022-08-19T12:31:47;4.73;;;3.77;;
18214;SDS011;9233;51.312;6.512;2022-08-19T12:34:33;7.80;;;3.83;;
18214;SDS011;9233;51.312;6.512;2022-08-19T12:37:22;4.67;;;3.30;;
18214;SDS011;9233;51.312;6.512;2022-08-19T12:40:10;5.93;;;3.00;;
18214;SDS011;9233;51.312;6.512;2022-08-19T12:42:57;6.73;;;3.27;;
18214;SDS011;9233;51.312;6.512;2022-08-19T12:45:44;7.60;;;3.93;;
18214;SDS011;9233;51.312;6.512;2022-08-19T12:48:32;4.03;;;3.37;;
18214;SDS011;9233;51.312;6.512;2022-08-19T12:51:19;5.57;;;3.27;;
18214;SDS011;9233;51.312;6.512;2022-08-19T12:54:06;4.00;;;3.17;;
18214;SDS011;9233;51.312;6.512;2022-08-19T12:56:56;4.90;;;3.50;;
18214;SDS011;9233;51.312;6.512;2022-08-19T12:59:46;5.10;;;4.50;;
18214;SDS011;9233;51.312;6.512;2022-08-19T13:02:32;4.50;;;3.37;;
18214;SDS011;9233;51.312;6.512;2022-08-19T13:05:22;5.87;;;3.60;;
18214;SDS011;9233;51.312;6.512;2022-08-19T13:08:11;7.03;;;3.70;;
18214;SDS011;9233;51.312;6.512;2022-08-19T13:10:58;4.20;;;2.83;;
18214;SDS011;9233;51.312;6.512;2022-08-19T13:13:53;8.20;;;2.47;;
18214;SDS011;9233;51.312;6.512;2022-08-19T13:16:41;5.47;;;2.83;;
18214;SDS011;9233;51.312;6.512;2022-08-19T13:19:28;3.17;;;2.87;;
18214;SDS011;9233;51.312;6.512;2022-08-19T13:22:17;4.27;;;3.30;;
18214;SDS011;9233;51.312;6.512;2022-08-19T13:25:04;5.07;;;2.87;;
18214;SDS011;9233;51.312;6.512;2022-08-19T13:27:52;6.77;;;3.30;;
18214;SDS011;9233;51.312;6.512;2022-08-19T13:30:40;3.23;;;2.83;;
18214;SDS011;9233;51.312;6.512;2022-08-19T13:33:44;5.63;;;3.40;;
18214;SDS011;9233;51.312;6.512;2022-08-19T13:36:32;6.03;;;3.97;;
18214;SDS011;9233;51.312;6.512;2022-08-19T13:39:20;4.47;;;3.17;;
18214;SDS011;9233;51.312;6.512;2022-08-19T13:42:08;4.33;;;3.10;;
18214;SDS011;9233;51.312;6.512;2022-08-19T13:44:55;6.50;;;3.13;;
18214;SDS011;9233;51.312;6.512;2022-08-19T13:47:44;7.20;;;3.33;;
18214;SDS011;9233;51.312;6.512;2022-08-19T13:50:31;4.23;;;3.37;;
18214;SDS011;9233;51.312;6.512;2022-08-19T13:53:18;3.73;;;3.20;;
18214;SDS011;9233;51.312;6.512;2022-08-19T13:56:07;8.93;;;3.63;;
18214;SDS011;9233;51.312;6.512;2022-08-19T13:58:55;5.33;;;2.93;;
18214;SDS011;9233;51.312;6.512;2022-08-19T14:01:42;3.10;;;2.70;;
18214;SDS011;9233;51.312;6.512;2022-08-19T14:04:28;4.10;;;2.97;;
18214;SDS011;9233;51.312;6.512;2022-08-19T14:07:15;3.17;;;2.87;;
18214;SDS011;9233;51.312;6.512;2022-08-19T14:10:02;4.97;;;2.97;;
18214;SDS011;9233;51.312;6.512;2022-08-19T14:12:53;5.87;;;3.27;;
18214;SDS011;9233;51.312;6.512;2022-08-19T14:15:40;3.97;;;3.10;;
18214;SDS011;9233;51.312;6.512;2022-08-19T14:18:27;4.37;;;2.50;;
18214;SDS011;9233;51.312;6.512;2022-08-19T14:21:17;11.40;;;6.67;;
18214;SDS011;9233;51.312;6.512;2022-08-19T14:24:07;5.47;;;3.87;;
18214;SDS011;9233;51.312;6.512;2022-08-19T14:26:54;4.23;;;3.27;;
18214;SDS011;9233;51.312;6.512;2022-08-19T14:29:42;5.60;;;2.80;;
18214;SDS011;9233;51.312;6.512;2022-08-19T14:32:29;3.63;;;2.80;;
18214;SDS011;9233;51.312;6.512;2022-08-19T14:35:16;3.80;;;2.77;;
18214;SDS011;9233;51.312;6.512;2022-08-19T14:38:03;6.67;;;2.90;;
18214;SDS011;9233;51.312;6.512;2022-08-19T14:40:51;4.27;;;2.93;;
18214;SDS011;9233;51.312;6.512;2022-08-19T14:43:38;6.03;;;2.50;;
18214;SDS011;9233;51.312;6.512;2022-08-19T14:46:28;5.90;;;3.30;;
18214;SDS011;9233;51.312;6.512;2022-08-19T14:49:14;4.57;;;3.40;;
18214;SDS011;9233;51.312;6.512;2022-08-19T14:52:01;3.80;;;3.30;;
18214;SDS011;9233;51.312;6.512;2022-08-19T14:54:49;4.10;;;3.40;;
18214;SDS011;9233;51.312;6.512;2022-08-19T14:57:36;4.87;;;3.20;;
18214;SDS011;9233;51.312;6.512;2022-08-19T15:00:23;6.03;;;3.30;;
18214;SDS011;9233;51.312;6.512;2022-08-19T15:03:12;4.33;;;3.47;;
18214;SDS011;9233;51.312;6.512;2022-08-19T15:05:59;5.40;;;3.80;;
18214;SDS011;9233;51.312;6.512;2022-08-19T15:08:46;5.30;;;3.43;;
18214;SDS011;9233;51.312;6.512;2022-08-19T15:11:32;5.03;;;3.40;;
18214;SDS011;9233;51.312;6.512;2022-08-19T15:14:25;5.63;;;3.57;;
18214;SDS011;9233;51.312;6.512;2022-08-19T15:17:42;5.27;;;3.80;;
18214;SDS011;9233;51.312;6.512;2022-08-19T15:20:30;5.10;;;3.70;;
18214;SDS011;9233;51.312;6.512;2022-08-19T15:23:17;5.97;;;4.07;;
18214;SDS011;9233;51.312;6.512;2022-08-19T15:26:05;6.93;;;3.67;;
18214;SDS011;9233;51.312;6.512;2022-08-19T15:28:53;6.77;;;4.40;;
18214;SDS011;9233;51.312;6.512;2022-08-19T15:31:41;5.20;;;3.87;;
18214;SDS011;9233;51.312;6.512;2022-08-19T15:34:27;5.53;;;4.00;;
18214;SDS011;9233;51.312;6.512;2022-08-19T15:37:17;5.43;;;4.27;;
18214;SDS011;9233;51.312;6.512;2022-08-19T15:40:06;10.67;;;3.87;;
18214;SDS011;9233;51.312;6.512;2022-08-19T15:42:54;6.83;;;4.50;;
18214;SDS011;9233;51.312;6.512;2022-08-19T15:45:43;6.90;;;4.70;;
18214;SDS011;9233;51.312;6.512;2022-08-19T15:48:29;5.30;;;4.20;;
18214;SDS011;9233;51.312;6.512;2022-08-19T15:51:16;6.10;;;4.77;;
18214;SDS011;9233;51.312;6.512;2022-08-19T15:54:06;5.80;;;4.40;;
18214;SDS011;9233;51.312;6.512;2022-08-19T15:56:54;7.27;;;4.37;;
18214;SDS011;9233;51.312;6.512;2022-08-19T15:59:58;6.13;;;4.77;;
18214;SDS011;9233;51.312;6.512;2022-08-19T16:03:02;7.57;;;4.60;;
18214;SDS011;9233;51.312;6.512;2022-08-19T16:06:06;7.93;;;5.23;;
18214;SDS011;9233;51.312;6.512;2022-08-19T16:09:20;6.90;;;4.90;;
18214;SDS011;9233;51.312;6.512;2022-08-19T16:12:08;7.40;;;4.70;;
18214;SDS011;9233;51.312;6.512;2022-08-19T16:14:55;7.90;;;4.70;;
18214;SDS011;9233;51.312;6.512;2022-08-19T16:17:41;8.70;;;5.40;;
18214;SDS011;9233;51.312;6.512;2022-08-19T16:20:28;6.33;;;4.90;;
18214;SDS011;9233;51.312;6.512;2022-08-19T16:23:15;7.90;;;5.03;;
18214;SDS011;9233;51.312;6.512;2022-08-19T16:26:03;6.57;;;5.03;;
18214;SDS011;9233;51.312;6.512;2022-08-19T16:28:50;7.87;;;5.00;;
18214;SDS011;9233;51.312;6.512;2022-08-19T16:31:37;7.67;;;4.23;;
18214;SDS011;9233;51.312;6.512;2022-08-19T16:34:24;6.90;;;4.67;;
18214;SDS011;9233;51.312;6.512;2022-08-19T16:37:11;7.33;;;4.47;;
18214;SDS011;9233;51.312;6.512;2022-08-19T16:39:58;5.50;;;4.13;;
18214;SDS011;9233;51.312;6.512;2022-08-19T16:42:53;8.50;;;5.23;;
18214;SDS011;9233;51.312;6.512;2022-08-19T16:45:41;6.90;;;5.00;;
18214;SDS011;9233;51.312;6.512;2022-08-19T16:48:40;6.60;;;4.97;;
18214;SDS011;9233;51.312;6.512;2022-08-19T16:55:48;8.87;;;4.70;;
18214;SDS011;9233;51.312;6.512;2022-08-19T17:02:39;7.43;;;4.87;;
18214;SDS011;9233;51.312;6.512;2022-08-19T17:09:23;6.13;;;4.10;;
18214;SDS011;9233;51.312;6.512;2022-08-19T17:12:13;4.87;;;3.03;;
18214;SDS011;9233;51.312;6.512;2022-08-19T17:15:00;11.40;;;3.43;;
18214;SDS011;9233;51.312;6.512;2022-08-19T17:17:49;2.83;;;2.10;;
18214;SDS011;9233;51.312;6.512;2022-08-19T17:20:37;3.43;;;1.83;;
18214;SDS011;9233;51.312;6.512;2022-08-19T17:23:24;2.90;;;1.17;;
18214;SDS011;9233;51.312;6.512;2022-08-19T17:26:11;3.20;;;1.60;;
18214;SDS011;9233;51.312;6.512;2022-08-19T17:28:59;2.37;;;1.83;;
18214;SDS011;9233;51.312;6.512;2022-08-19T17:31:45;4.60;;;2.10;;
18214;SDS011;9233;51.312;6.512;2022-08-19T17:34:33;3.50;;;1.50;;
18214;SDS011;9233;51.312;6.512;2022-08-19T17:37:20;2.07;;;1.37;;
18214;SDS011;9233;51.312;6.512;2022-08-19T17:40:07;1.70;;;1.30;;
18214;SDS011;9233;51.312;6.512;2022-08-19T17:42:54;1.57;;;1.17;;
18214;SDS011;9233;51.312;6.512;2022-08-19T17:45:41;2.80;;;1.50;;
18214;SDS011;9233;51.312;6.512;2022-08-19T17:48:32;1.33;;;1.10;;
18214;SDS011;9233;51.312;6.512;2022-08-19T17:54:39;1.73;;;1.27;;
18214;SDS011;9233;51.312;6.512;2022-08-19T17:57:29;2.77;;;1.60;;
18214;SDS011;9233;51.312;6.512;2022-08-19T18:00:16;1.40;;;1.30;;
18214;SDS011;9233;51.312;6.512;2022-08-19T18:03:04;2.63;;;1.47;;
18214;SDS011;9233;51.312;6.512;2022-08-19T18:05:51;1.87;;;1.37;;
18214;SDS011;9233;51.312;6.512;2022-08-19T18:08:39;2.57;;;1.40;;
18214;SDS011;9233;51.312;6.512;2022-08-19T18:11:26;2.17;;;1.60;;
18214;SDS011;9233;51.312;6.512;2022-08-19T18:14:12;2.70;;;1.67;;
18214;SDS011;9233;51.312;6.512;2022-08-19T18:16:59;2.17;;;1.50;;
18214;SDS011;9233;51.312;6.512;2022-08-19T18:19:50;2.73;;;1.70;;
18214;SDS011;9233;51.312;6.512;2022-08-19T18:22:37;2.97;;;2.00;;
18214;SDS011;9233;51.312;6.512;2022-08-19T18:25:26;3.10;;;1.83;;
18214;SDS011;9233;51.312;6.512;2022-08-19T18:28:13;2.93;;;1.80;;
18214;SDS011;9233;51.312;6.512;2022-08-19T18:30:59;3.63;;;2.07;;
18214;SDS011;9233;51.312;6.512;2022-08-19T18:33:47;2.60;;;1.90;;
18214;SDS011;9233;51.312;6.512;2022-08-19T18:36:36;2.17;;;1.90;;
18214;SDS011;9233;51.312;6.512;2022-08-19T18:39:23;2.07;;;1.70;;
18214;SDS011;9233;51.312;6.512;2022-08-19T18:42:38;4.20;;;1.80;;
18214;SDS011;9233;51.312;6.512;2022-08-19T18:45:44;3.97;;;1.93;;
18214;SDS011;9233;51.312;6.512;2022-08-19T18:48:48;3.23;;;2.00;;
18214;SDS011;9233;51.312;6.512;2022-08-19T18:51:51;2.67;;;1.87;;
18214;SDS011;9233;51.312;6.512;2022-08-19T18:54:38;11.30;;;7.73;;
18214;SDS011;9233;51.312;6.512;2022-08-19T18:57:25;9.20;;;6.10;;
18214;SDS011;9233;51.312;6.512;2022-08-19T19:00:13;4.67;;;3.13;;
18214;SDS011;9233;51.312;6.512;2022-08-19T19:03:00;3.53;;;2.40;;
18214;SDS011;9233;51.312;6.512;2022-08-19T19:05:47;4.07;;;2.17;;
18214;SDS011;9233;51.312;6.512;2022-08-19T19:08:33;2.60;;;1.77;;
18214;SDS011;9233;51.312;6.512;2022-08-19T19:11:21;2.50;;;1.87;;
18214;SDS011;9233;51.312;6.512;2022-08-19T19:14:09;2.27;;;1.87;;
18214;SDS011;9233;51.312;6.512;2022-08-19T19:16:59;2.93;;;1.97;;
18214;SDS011;9233;51.312;6.512;2022-08-19T19:19:47;2.37;;;1.90;;
18214;SDS011;9233;51.312;6.512;2022-08-19T19:22:33;2.87;;;1.80;;
18214;SDS011;9233;51.312;6.512;2022-08-19T19:25:20;2.03;;;1.80;;
18214;SDS011;9233;51.312;6.512;2022-08-19T19:28:07;3.00;;;2.10;;
18214;SDS011;9233;51.312;6.512;2022-08-19T19:30:54;3.40;;;2.30;;
18214;SDS011;9233;51.312;6.512;2022-08-19T19:33:44;2.53;;;2.10;;
18214;SDS011;9233;51.312;6.512;2022-08-19T19:36:31;2.10;;;1.90;;
18214;SDS011;9233;51.312;6.512;2022-08-19T19:39:18;4.63;;;2.17;;
18214;SDS011;9233;51.312;6.512;2022-08-19T19:42:06;2.23;;;1.90;;
18214;SDS011;9233;51.312;6.512;2022-08-19T19:44:54;2.93;;;1.60;;
18214;SDS011;9233;51.312;6.512;2022-08-19T19:47:41;1.83;;;1.67;;
18214;SDS011;9233;51.312;6.512;2022-08-19T19:50:30;2.20;;;1.80;;
18214;SDS011;9233;51.312;6.512;2022-08-19T19:53:16;4.30;;;1.83;;
18214;SDS011;9233;51.312;6.512;2022-08-19T19:56:03;2.80;;;1.67;;
18214;SDS011;9233;51.312;6.512;2022-08-19T19:58:50;2.47;;;2.10;;
18214;SDS011;9233;51.312;6.512;2022-08-19T20:01:37;2.33;;;1.70;;
18214;SDS011;9233;51.312;6.512;2022-08-19T20:04:24;2.27;;;1.70;;
18214;SDS011;9233;51.312;6.512;2022-08-19T20:07:12;2.50;;;1.73;;
18214;SDS011;9233;51.312;6.512;2022-08-19T20:09:59;3.40;;;1.70;;
18214;SDS011;9233;51.312;6.512;2022-08-19T20:12:45;2.00;;;1.70;;
18214;SDS011;9233;51.312;6.512;2022-08-19T20:15:31;1.63;;;1.53;;
18214;SDS011;9233;51.312;6.512;2022-08-19T20:18:18;4.20;;;2.40;;
18214;SDS011;9233;51.312;6.512;2022-08-19T20:21:05;4.03;;;1.90;;
18214;SDS011;9233;51.312;6.512;2022-08-19T20:23:53;3.43;;;1.83;;
18214;SDS011;9233;51.312;6.512;2022-08-19T20:26:41;2.37;;;2.00;;
18214;SDS011;9233;51.312;6.512;2022-08-19T20:29:28;3.43;;;1.90;;
18214;SDS011;9233;51.312;6.512;2022-08-19T20:32:15;1.97;;;1.80;;
18214;SDS011;9233;51.312;6.512;2022-08-19T20:35:02;3.13;;;2.13;;
18214;SDS011;9233;51.312;6.512;2022-08-19T20:37:50;4.00;;;3.00;;
18214;SDS011;9233;51.312;6.512;2022-08-19T20:40:40;2.83;;;2.53;;
18214;SDS011;9233;51.312;6.512;2022-08-19T20:43:27;3.90;;;2.97;;
18214;SDS011;9233;51.312;6.512;2022-08-19T20:46:14;4.07;;;3.33;;
18214;SDS011;9233;51.312;6.512;2022-08-19T20:49:00;4.13;;;3.37;;
18214;SDS011;9233;51.312;6.512;2022-08-19T20:51:47;6.50;;;3.50;;
18214;SDS011;9233;51.312;6.512;2022-08-19T20:54:34;4.47;;;3.07;;
18214;SDS011;9233;51.312;6.512;2022-08-19T20:57:22;4.63;;;3.10;;
18214;SDS011;9233;51.312;6.512;2022-08-19T21:00:09;3.70;;;2.43;;
18214;SDS011;9233;51.312;6.512;2022-08-19T21:02:56;4.00;;;3.17;;
18214;SDS011;9233;51.312;6.512;2022-08-19T21:05:43;3.13;;;2.40;;
18214;SDS011;9233;51.312;6.512;2022-08-19T21:08:31;2.40;;;2.20;;
18214;SDS011;9233;51.312;6.512;2022-08-19T21:11:17;3.30;;;2.67;;
18214;SDS011;9233;51.312;6.512;2022-08-19T21:14:06;4.80;;;2.33;;
18214;SDS011;9233;51.312;6.512;2022-08-19T21:16:52;4.73;;;3.07;;
18214;SDS011;9233;51.312;6.512;2022-08-19T21:19:39;4.53;;;2.10;;
18214;SDS011;9233;51.312;6.512;2022-08-19T21:22:25;3.13;;;2.47;;
18214;SDS011;9233;51.312;6.512;2022-08-19T21:25:12;3.10;;;2.47;;
18214;SDS011;9233;51.312;6.512;2022-08-19T21:27:59;3.80;;;3.10;;
18214;SDS011;9233;51.312;6.512;2022-08-19T21:30:47;5.13;;;3.77;;
18214;SDS011;9233;51.312;6.512;2022-08-19T21:33:33;5.13;;;3.83;;
18214;SDS011;9233;51.312;6.512;2022-08-19T21:36:20;6.07;;;3.70;;
18214;SDS011;9233;51.312;6.512;2022-08-19T21:39:07;4.83;;;3.47;;
18214;SDS011;9233;51.312;6.512;2022-08-19T21:41:53;4.80;;;3.43;;
18214;SDS011;9233;51.312;6.512;2022-08-19T21:44:40;5.37;;;3.50;;
18214;SDS011;9233;51.312;6.512;2022-08-19T21:47:28;6.60;;;3.57;;
18214;SDS011;9233;51.312;6.512;2022-08-19T21:50:15;5.30;;;3.73;;
18214;SDS011;9233;51.312;6.512;2022-08-19T21:53:02;5.73;;;3.87;;
18214;SDS011;9233;51.312;6.512;2022-08-19T21:55:48;8.43;;;3.97;;
18214;SDS011;9233;51.312;6.512;2022-08-19T21:58:35;6.30;;;4.00;;
18214;SDS011;9233;51.312;6.512;2022-08-19T22:01:22;5.97;;;3.90;;
18214;SDS011;9233;51.312;6.512;2022-08-19T22:04:10;4.53;;;3.87;;
18214;SDS011;9233;51.312;6.512;2022-08-19T22:06:56;4.87;;;3.27;;
18214;SDS011;9233;51.312;6.512;2022-08-19T22:09:43;6.30;;;3.53;;
18214;SDS011;9233;51.312;6.512;2022-08-19T22:12:31;5.80;;;3.57;;
18214;SDS011;9233;51.312;6.512;2022-08-19T22:15:19;4.53;;;3.20;;
18214;SDS011;9233;51.312;6.512;2022-08-19T22:18:06;6.57;;;3.47;;
18214;SDS011;9233;51.312;6.512;2022-08-19T22:20:54;4.77;;;3.37;;
18214;SDS011;9233;51.312;6.512;2022-08-19T22:23:40;8.10;;;3.50;;
18214;SDS011;9233;51.312;6.512;2022-08-19T22:26:28;5.77;;;3.60;;
18214;SDS011;9233;51.312;6.512;2022-08-19T22:29:15;5.80;;;3.47;;
18214;SDS011;9233;51.312;6.512;2022-08-19T22:32:02;6.23;;;3.80;;
18214;SDS011;9233;51.312;6.512;2022-08-19T22:34:49;8.67;;;3.70;;
18214;SDS011;9233;51.312;6.512;2022-08-19T22:37:37;5.40;;;3.30;;
18214;SDS011;9233;51.312;6.512;2022-08-19T22:40:26;8.70;;;4.20;;
18214;SDS011;9233;51.312;6.512;2022-08-19T22:43:14;4.90;;;3.13;;
18214;SDS011;9233;51.312;6.512;2022-08-19T22:46:04;5.57;;;3.83;;
18214;SDS011;9233;51.312;6.512;2022-08-19T22:48:51;5.07;;;3.00;;
18214;SDS011;9233;51.312;6.512;2022-08-19T22:51:38;4.00;;;3.50;;
18214;SDS011;9233;51.312;6.512;2022-08-19T22:54:40;3.10;;;2.80;;
18214;SDS011;9233;51.312;6.512;2022-08-19T22:57:27;4.43;;;3.30;;
18214;SDS011;9233;51.312;6.512;2022-08-19T23:00:14;5.17;;;3.40;;
18214;SDS011;9233;51.312;6.512;2022-08-19T23:03:06;6.80;;;2.90;;
18214;SDS011;9233;51.312;6.512;2022-08-19T23:05:53;4.70;;;3.20;;
18214;SDS011;9233;51.312;6.512;2022-08-19T23:08:40;3.77;;;3.13;;
18214;SDS011;9233;51.312;6.512;2022-08-19T23:11:28;4.00;;;3.03;;
18214;SDS011;9233;51.312;6.512;2022-08-19T23:14:15;3.53;;;2.23;;
18214;SDS011;9233;51.312;6.512;2022-08-19T23:17:03;5.63;;;2.93;;
18214;SDS011;9233;51.312;6.512;2022-08-19T23:19:49;4.13;;;2.73;;
18214;SDS011;9233;51.312;6.512;2022-08-19T23:22:37;3.33;;;2.70;;
18214;SDS011;9233;51.312;6.512;2022-08-19T23:25:26;3.47;;;2.60;;
18214;SDS011;9233;51.312;6.512;2022-08-19T23:28:15;5.27;;;2.67;;
18214;SDS011;9233;51.312;6.512;2022-08-19T23:31:19;5.37;;;3.27;;
18214;SDS011;9233;51.312;6.512;2022-08-19T23:34:06;3.63;;;2.57;;
18214;SDS011;9233;51.312;6.512;2022-08-19T23:36:53;4.83;;;3.00;;
18214;SDS011;9233;51.312;6.512;2022-08-19T23:39:39;5.70;;;3.20;;
18214;SDS011;9233;51.312;6.512;2022-08-19T23:42:26;3.13;;;2.47;;
18214;SDS011;9233;51.312;6.512;2022-08-19T23:45:14;5.07;;;2.73;;
18214;SDS011;9233;51.312;6.512;2022-08-19T23:48:02;6.67;;;3.00;;
18214;SDS011;9233;51.312;6.512;2022-08-19T23:50:49;3.37;;;2.80;;
18214;SDS011;9233;51.312;6.512;2022-08-19T23:53:36;3.70;;;2.87;;
18214;SDS011;9233;51.312;6.512;2022-08-19T23:56:23;5.53;;;3.37;;
18214;SDS011;9233;51.312;6.512;2022-08-19T23:59:10;4.33;;;2.97;;
